Omaha, NE (68142)

3:56 PM CST on November 26, 2014 (GMT -0600)
Deer Creek | Change Station
CLOSE
Current Station
Personal Weather Station
Location: Omaha, NE
Elevation: 1148 ft
Nearby Weather Stations

Elev 1148 ft 41.33 °N, 96.11 °W | Updated 1 second ago

Overcast
Overcast
27.7 °F
Feels Like 28 °F
N
0.0
Wind Variable Wind from North
Gusts 0.0 mph

Today
High -- | Low -- °F
--% Chance of Precip.
Yesterday
High -- | Low -- °F
Precip. -- in
7:25 AM 4:57 PM
Waxing Crescent, 23% visible
Pressure 30.21 in
Visibility 10.0 miles
Clouds Overcast 1800 ft
Windchill 28 °F
Dew Point 21 °F
Humidity 75%
Rainfall 0.00 in
Snow Depth Not available.
UV 0 out of 12
Pollen .10 out of 12
Air Quality Not available.
Flu Activity Not available.
METAR KBTA 262135Z AUTO 34017G30KT 10SM OVC018 M02/M06 A3021 RMK AO2 T10171061

More Conditions Fewer Conditions

Pressure 30.21 in
Visibility 10.0 miles
Clouds Overcast 1800 ft
Windchill 28 °F
Dew Point 21 °F
Humidity 75%
Rainfall 0.00 in
Snow Depth Not available.
UV 0 out of 12
Pollen .10 out of 12
Air Quality Not available.
Flu Activity Not available.
METAR KBTA 262135Z AUTO 34017G30KT 10SM OVC018 M02/M06 A3021 RMK AO2 T10171061

More Conditions Fewer Conditions

10-Day Weather Forecast

Almanac

Astronomy

Nov. 26, 2014 Rise Set
Actual Time
Civil Twilight
Nautical Twilight
Astronomical Twilight
Moon
Length of Visible Light
Length of Day
Tomorrow will be .
, % of the Moon is Illuminated

Today's Extremes

State Highs State Lows

Community

WunderPhotos

Upload Photos

1,773,876 photos uploaded!

WunderBlogs® & News

Nearby

Air Quality

  Air Quality AQ Index Pollutant
Not available.

Snow Depth

Station Depth Elevation

Earthquake Activity

City Distance Mag. Time & Date
Minimum magnitude displayed is 2.5.

Coastal Water Temperatures

Place Temperature

Nearby Weather Stations